Portada
METAR-TAF:

METAR-TAF

Aeroports :

Manicoré, Amazones, Brasil

latitud: 05-49S, longitud: 061-18W, altitud: 50 m

Observació

L'informe es va fer fa 2 hores i 40 minuts, a les 20:00 UTC
Vent 6 kt del Nord-Oest
Temperatura 32°C
Humitat 63%
Pressió 1006 hPa
Visibilitat 10 km o més
Escasses núvols a una alçada de 2200 ft

METAR: SBMY 132000Z 32006KT 9999 FEW022 32/24 Q1006

Hora: 18:40 (22:40 UTC)


TAF: manca

Observacions i pronòstics meteorològics de més de 4000 aeroports (METAR i TAF).

Les estacions disponibles són els punts grocs i vermells al mapa.

Posi el ratolí al punt desitjat per veure el nom de l'estació.

Feu clic per veure les observacions i els pronòstics meteorològics.

Per canviar el mapa: feu clic els botons verds amb una creu de color negre per apropar; al botó verd amb un guió per allunyar la imatge; o en les fletxes verdes per a mapes adjacents.


METAR-TAF: